sensor_id;sensor_type;location;lat;lon;timestamp;pressure;altitude;pressure_sealevel;temperature;humidity
14067;BME280;7108;42.684;23.350;2024-02-26T00:01:56;94948.22;;;9.87;100.00
14067;BME280;7108;42.684;23.350;2024-02-26T00:04:22;94938.59;;;9.86;100.00
14067;BME280;7108;42.684;23.350;2024-02-26T00:06:47;94956.75;;;9.93;100.00
14067;BME280;7108;42.684;23.350;2024-02-26T00:09:15;94944.03;;;9.90;100.00
14067;BME280;7108;42.684;23.350;2024-02-26T00:11:41;94932.06;;;9.87;100.00
14067;BME280;7108;42.684;23.350;2024-02-26T00:14:06;94924.59;;;9.77;100.00
14067;BME280;7108;42.684;23.350;2024-02-26T00:16:31;94927.00;;;9.82;100.00
14067;BME280;7108;42.684;23.350;2024-02-26T00:18:57;94942.06;;;9.87;100.00
14067;BME280;7108;42.684;23.350;2024-02-26T00:21:23;94931.25;;;9.83;100.00
14067;BME280;7108;42.684;23.350;2024-02-26T00:23:53;94927.59;;;9.73;100.00
14067;BME280;7108;42.684;23.350;2024-02-26T00:26:18;94946.44;;;9.95;100.00
14067;BME280;7108;42.684;23.350;2024-02-26T00:28:44;94923.56;;;9.85;100.00
14067;BME280;7108;42.684;23.350;2024-02-26T00:31:09;94937.88;;;9.89;100.00
14067;BME280;7108;42.684;23.350;2024-02-26T00:33:35;94925.94;;;9.87;100.00
14067;BME280;7108;42.684;23.350;2024-02-26T00:36:00;94929.22;;;9.77;100.00
14067;BME280;7108;42.684;23.350;2024-02-26T00:38:25;94909.19;;;9.75;100.00
14067;BME280;7108;42.684;23.350;2024-02-26T00:40:51;94919.38;;;9.88;100.00
14067;BME280;7108;42.684;23.350;2024-02-26T00:43:16;94907.63;;;9.74;100.00
14067;BME280;7108;42.684;23.350;2024-02-26T00:45:41;94901.84;;;9.72;100.00
14067;BME280;7108;42.684;23.350;2024-02-26T00:48:07;94900.28;;;9.71;100.00
14067;BME280;7108;42.684;23.350;2024-02-26T00:50:35;94906.59;;;9.81;100.00
14067;BME280;7108;42.684;23.350;2024-02-26T00:53:01;94915.94;;;9.87;100.00
14067;BME280;7108;42.684;23.350;2024-02-26T00:55:27;94906.66;;;9.85;100.00
14067;BME280;7108;42.684;23.350;2024-02-26T00:57:52;94913.97;;;9.62;100.00
14067;BME280;7108;42.684;23.350;2024-02-26T01:00:18;94910.56;;;9.65;100.00
14067;BME280;7108;42.684;23.350;2024-02-26T01:02:43;94906.97;;;9.58;100.00
14067;BME280;7108;42.684;23.350;2024-02-26T01:05:11;94914.59;;;9.75;100.00
14067;BME280;7108;42.684;23.350;2024-02-26T01:07:37;94901.16;;;9.78;100.00
14067;BME280;7108;42.684;23.350;2024-02-26T01:10:03;94893.06;;;9.75;100.00
14067;BME280;7108;42.684;23.350;2024-02-26T01:12:29;94906.25;;;9.83;100.00
14067;BME280;7108;42.684;23.350;2024-02-26T01:14:55;94903.25;;;9.88;100.00
14067;BME280;7108;42.684;23.350;2024-02-26T01:17:20;94897.53;;;9.89;100.00
14067;BME280;7108;42.684;23.350;2024-02-26T01:19:45;94897.84;;;9.84;100.00
14067;BME280;7108;42.684;23.350;2024-02-26T01:22:11;94900.34;;;9.96;100.00
14067;BME280;7108;42.684;23.350;2024-02-26T01:24:36;94901.59;;;10.02;100.00
14067;BME280;7108;42.684;23.350;2024-02-26T01:27:02;94887.22;;;9.95;100.00
14067;BME280;7108;42.684;23.350;2024-02-26T01:29:27;94899.38;;;10.08;100.00
14067;BME280;7108;42.684;23.350;2024-02-26T01:31:52;94879.59;;;9.97;100.00
14067;BME280;7108;42.684;23.350;2024-02-26T01:34:18;94895.06;;;10.03;100.00
14067;BME280;7108;42.684;23.350;2024-02-26T01:36:44;94893.16;;;10.04;100.00
14067;BME280;7108;42.684;23.350;2024-02-26T01:39:09;94899.63;;;9.99;100.00
14067;BME280;7108;42.684;23.350;2024-02-26T01:41:38;94899.91;;;9.94;100.00
14067;BME280;7108;42.684;23.350;2024-02-26T01:44:04;94882.50;;;9.88;100.00
14067;BME280;7108;42.684;23.350;2024-02-26T01:46:30;94890.44;;;10.00;100.00
14067;BME280;7108;42.684;23.350;2024-02-26T01:48:57;94897.56;;;9.93;100.00
14067;BME280;7108;42.684;23.350;2024-02-26T01:51:23;94888.50;;;10.01;100.00
14067;BME280;7108;42.684;23.350;2024-02-26T01:53:49;94880.00;;;9.99;100.00
14067;BME280;7108;42.684;23.350;2024-02-26T01:56:15;94882.75;;;10.02;100.00
14067;BME280;7108;42.684;23.350;2024-02-26T01:58:42;94873.53;;;10.03;100.00
14067;BME280;7108;42.684;23.350;2024-02-26T02:01:08;94865.69;;;9.95;100.00
14067;BME280;7108;42.684;23.350;2024-02-26T02:03:35;94884.00;;;10.08;100.00
14067;BME280;7108;42.684;23.350;2024-02-26T02:06:02;94884.00;;;10.08;100.00
14067;BME280;7108;42.684;23.350;2024-02-26T02:08:28;94878.63;;;10.08;100.00
14067;BME280;7108;42.684;23.350;2024-02-26T02:10:53;94881.19;;;10.01;100.00
14067;BME280;7108;42.684;23.350;2024-02-26T02:13:19;94869.34;;;10.06;100.00
14067;BME280;7108;42.684;23.350;2024-02-26T02:15:44;94877.13;;;10.11;100.00
14067;BME280;7108;42.684;23.350;2024-02-26T02:18:10;94865.53;;;10.07;100.00
14067;BME280;7108;42.684;23.350;2024-02-26T02:20:35;94851.91;;;9.96;100.00
14067;BME280;7108;42.684;23.350;2024-02-26T02:23:01;94869.41;;;10.09;100.00
14067;BME280;7108;42.684;23.350;2024-02-26T02:25:27;94871.97;;;10.02;100.00
14067;BME280;7108;42.684;23.350;2024-02-26T02:27:56;94872.41;;;10.04;100.00
14067;BME280;7108;42.684;23.350;2024-02-26T02:30:27;94850.22;;;9.88;100.00
14067;BME280;7108;42.684;23.350;2024-02-26T02:32:53;94858.47;;;9.99;100.00
14067;BME280;7108;42.684;23.350;2024-02-26T02:35:20;94872.09;;;10.09;100.00
14067;BME280;7108;42.684;23.350;2024-02-26T02:37:45;94849.22;;;9.96;100.00
14067;BME280;7108;42.684;23.350;2024-02-26T02:40:11;94865.22;;;10.12;100.00
14067;BME280;7108;42.684;23.350;2024-02-26T02:42:36;94849.69;;;10.02;100.00
14067;BME280;7108;42.684;23.350;2024-02-26T02:45:02;94876.09;;;10.19;100.00
14067;BME280;7108;42.684;23.350;2024-02-26T02:47:27;94856.25;;;10.04;100.00
14067;BME280;7108;42.684;23.350;2024-02-26T02:49:52;94881.44;;;10.15;100.00
14067;BME280;7108;42.684;23.350;2024-02-26T02:52:18;94875.56;;;10.10;100.00
14067;BME280;7108;42.684;23.350;2024-02-26T02:54:43;94862.72;;;10.00;100.00
14067;BME280;7108;42.684;23.350;2024-02-26T02:57:09;94882.03;;;10.05;100.00
14067;BME280;7108;42.684;23.350;2024-02-26T02:59:35;94878.50;;;10.01;100.00
14067;BME280;7108;42.684;23.350;2024-02-26T03:02:00;94873.53;;;10.03;100.00
14067;BME280;7108;42.684;23.350;2024-02-26T03:04:26;94879.00;;;10.07;100.00
14067;BME280;7108;42.684;23.350;2024-02-26T03:06:51;94882.13;;;10.12;100.00
14067;BME280;7108;42.684;23.350;2024-02-26T03:09:16;94888.41;;;10.20;100.00
14067;BME280;7108;42.684;23.350;2024-02-26T03:11:42;94880.19;;;10.09;100.00
14067;BME280;7108;42.684;23.350;2024-02-26T03:14:07;94885.56;;;10.09;100.00
14067;BME280;7108;42.684;23.350;2024-02-26T03:16:33;94888.72;;;10.15;100.00
14067;BME280;7108;42.684;23.350;2024-02-26T03:18:59;94892.19;;;10.15;100.00
14067;BME280;7108;42.684;23.350;2024-02-26T03:21:25;94874.38;;;10.07;100.00
14067;BME280;7108;42.684;23.350;2024-02-26T03:23:50;94882.38;;;10.04;100.00
14067;BME280;7108;42.684;23.350;2024-02-26T03:26:16;94864.66;;;9.99;100.00
14067;BME280;7108;42.684;23.350;2024-02-26T03:28:41;94846.19;;;9.98;100.00
14067;BME280;7108;42.684;23.350;2024-02-26T03:31:07;94861.03;;;10.14;100.00
14067;BME280;7108;42.684;23.350;2024-02-26T03:33:32;94865.66;;;10.17;100.00
14067;BME280;7108;42.684;23.350;2024-02-26T03:35:57;94857.97;;;10.16;100.00
14067;BME280;7108;42.684;23.350;2024-02-26T03:38:23;94851.34;;;10.10;100.00
14067;BME280;7108;42.684;23.350;2024-02-26T03:40:48;94863.78;;;10.18;100.00
14067;BME280;7108;42.684;23.350;2024-02-26T03:43:14;94848.66;;;10.10;100.00
14067;BME280;7108;42.684;23.350;2024-02-26T03:45:39;94861.78;;;10.15;100.00
14067;BME280;7108;42.684;23.350;2024-02-26T03:48:05;94859.34;;;10.06;100.00
14067;BME280;7108;42.684;23.350;2024-02-26T03:50:30;94878.63;;;10.08;100.00
14067;BME280;7108;42.684;23.350;2024-02-26T03:52:56;94859.00;;;10.08;100.00
14067;BME280;7108;42.684;23.350;2024-02-26T03:55:22;94857.50;;;10.10;100.00
14067;BME280;7108;42.684;23.350;2024-02-26T03:57:51;94864.41;;;10.11;100.00
14067;BME280;7108;42.684;23.350;2024-02-26T04:00:17;94852.78;;;10.04;100.00
14067;BME280;7108;42.684;23.350;2024-02-26T04:02:42;94859.00;;;10.08;100.00
14067;BME280;7108;42.684;23.350;2024-02-26T04:05:11;94857.09;;;10.08;100.00
14067;BME280;7108;42.684;23.350;2024-02-26T04:07:37;94835.88;;;10.03;100.00
14067;BME280;7108;42.684;23.350;2024-02-26T04:10:02;94850.50;;;10.06;100.00
14067;BME280;7108;42.684;23.350;2024-02-26T04:12:31;94848.13;;;10.01;100.00
14067;BME280;7108;42.684;23.350;2024-02-26T04:14:56;94845.72;;;9.96;100.00
14067;BME280;7108;42.684;23.350;2024-02-26T04:17:21;94854.94;;;9.95;100.00
14067;BME280;7108;42.684;23.350;2024-02-26T04:19:47;94847.59;;;9.92;100.00
14067;BME280;7108;42.684;23.350;2024-02-26T04:22:12;94824.69;;;9.79;100.00
14067;BME280;7108;42.684;23.350;2024-02-26T04:24:38;94844.69;;;10.04;100.00
14067;BME280;7108;42.684;23.350;2024-02-26T04:27:03;94835.75;;;9.96;100.00
14067;BME280;7108;42.684;23.350;2024-02-26T04:29:28;94835.34;;;9.94;100.00
14067;BME280;7108;42.684;23.350;2024-02-26T04:31:54;94835.13;;;10.06;100.00
14067;BME280;7108;42.684;23.350;2024-02-26T04:34:19;94837.00;;;10.02;100.00
14067;BME280;7108;42.684;23.350;2024-02-26T04:36:45;94843.56;;;10.05;100.00
14067;BME280;7108;42.684;23.350;2024-02-26T04:39:10;94845.03;;;9.99;100.00
14067;BME280;7108;42.684;23.350;2024-02-26T04:41:36;94854.25;;;9.98;100.00
14067;BME280;7108;42.684;23.350;2024-02-26T04:44:02;94833.78;;;9.93;100.00
14067;BME280;7108;42.684;23.350;2024-02-26T04:46:27;94827.56;;;9.89;100.00
14067;BME280;7108;42.684;23.350;2024-02-26T04:48:58;94841.13;;;9.96;100.00
14067;BME280;7108;42.684;23.350;2024-02-26T04:51:26;94847.09;;;10.09;100.00
14067;BME280;7108;42.684;23.350;2024-02-26T04:53:52;94829.28;;;10.01;100.00
14067;BME280;7108;42.684;23.350;2024-02-26T04:56:20;94846.09;;;9.94;100.00
14067;BME280;7108;42.684;23.350;2024-02-26T04:58:46;94860.81;;;10.00;100.00
14067;BME280;7108;42.684;23.350;2024-02-26T05:01:11;94860.84;;;10.04;100.00
14067;BME280;7108;42.684;23.350;2024-02-26T05:03:36;94842.69;;;9.97;100.00
14067;BME280;7108;42.684;23.350;2024-02-26T05:06:02;94858.28;;;9.88;100.00
14067;BME280;7108;42.684;23.350;2024-02-26T05:08:27;94882.31;;;9.75;100.00
14067;BME280;7108;42.684;23.350;2024-02-26T05:10:54;94861.03;;;9.66;100.00
14067;BME280;7108;42.684;23.350;2024-02-26T05:13:19;94866.09;;;9.71;100.00
14067;BME280;7108;42.684;23.350;2024-02-26T05:15:45;94875.34;;;9.74;100.00
14067;BME280;7108;42.684;23.350;2024-02-26T05:18:12;94886.13;;;9.74;100.00
14067;BME280;7108;42.684;23.350;2024-02-26T05:20:37;94885.63;;;9.68;100.00
14067;BME280;7108;42.684;23.350;2024-02-26T05:23:03;94882.53;;;9.66;100.00
14067;BME280;7108;42.684;23.350;2024-02-26T05:25:29;94889.13;;;9.69;100.00
14067;BME280;7108;42.684;23.350;2024-02-26T05:27:54;94899.34;;;9.82;100.00
14067;BME280;7108;42.684;23.350;2024-02-26T05:30:20;94900.03;;;9.79;100.00
14067;BME280;7108;42.684;23.350;2024-02-26T05:32:45;94913.31;;;9.91;100.00
14067;BME280;7108;42.684;23.350;2024-02-26T05:35:11;94913.31;;;9.91;100.00
14067;BME280;7108;42.684;23.350;2024-02-26T05:37:36;94905.22;;;9.91;100.00
14067;BME280;7108;42.684;23.350;2024-02-26T05:40:01;94915.34;;;9.97;100.00
14067;BME280;7108;42.684;23.350;2024-02-26T05:42:29;94911.00;;;9.93;100.00
14067;BME280;7108;42.684;23.350;2024-02-26T05:44:55;94883.81;;;9.76;100.00
14067;BME280;7108;42.684;23.350;2024-02-26T05:47:20;94908.28;;;9.89;100.00
14067;BME280;7108;42.684;23.350;2024-02-26T05:49:45;94915.78;;;9.99;100.00
14067;BME280;7108;42.684;23.350;2024-02-26T05:52:11;94916.97;;;10.02;100.00
14067;BME280;7108;42.684;23.350;2024-02-26T05:54:36;94918.56;;;10.06;100.00
14067;BME280;7108;42.684;23.350;2024-02-26T05:57:01;94915.88;;;10.06;100.00
14067;BME280;7108;42.684;23.350;2024-02-26T05:59:27;94912.88;;;10.11;100.00
14067;BME280;7108;42.684;23.350;2024-02-26T06:01:52;94904.41;;;10.09;100.00
14067;BME280;7108;42.684;23.350;2024-02-26T06:04:18;94910.97;;;10.12;100.00
14067;BME280;7108;42.684;23.350;2024-02-26T06:06:44;94923.00;;;10.18;100.00
14067;BME280;7108;42.684;23.350;2024-02-26T06:09:11;94921.38;;;10.13;100.00
14067;BME280;7108;42.684;23.350;2024-02-26T06:11:37;94932.56;;;10.15;100.00
14067;BME280;7108;42.684;23.350;2024-02-26T06:14:02;94921.00;;;10.15;100.00
14067;BME280;7108;42.684;23.350;2024-02-26T06:16:27;94923.81;;;10.22;100.00
14067;BME280;7108;42.684;23.350;2024-02-26T06:18:53;94939.66;;;10.27;100.00
14067;BME280;7108;42.684;23.350;2024-02-26T06:21:18;94935.47;;;10.29;100.00
14067;BME280;7108;42.684;23.350;2024-02-26T06:23:44;94928.91;;;10.27;100.00
14067;BME280;7108;42.684;23.350;2024-02-26T06:26:09;94931.63;;;10.30;100.00
14067;BME280;7108;42.684;23.350;2024-02-26T06:28:35;94918.56;;;10.32;100.00
14067;BME280;7108;42.684;23.350;2024-02-26T06:31:01;94930.53;;;10.35;100.00
14067;BME280;7108;42.684;23.350;2024-02-26T06:33:27;94917.81;;;10.32;100.00
14067;BME280;7108;42.684;23.350;2024-02-26T06:35:52;94917.06;;;10.35;100.00
14067;BME280;7108;42.684;23.350;2024-02-26T06:38:17;94919.44;;;10.36;100.00
14067;BME280;7108;42.684;23.350;2024-02-26T06:40:44;94925.56;;;10.37;100.00
14067;BME280;7108;42.684;23.350;2024-02-26T06:43:10;94934.78;;;10.36;100.00
14067;BME280;7108;42.684;23.350;2024-02-26T06:45:36;94935.00;;;10.24;100.00
14067;BME280;7108;42.684;23.350;2024-02-26T06:48:02;94910.47;;;10.03;100.00
14067;BME280;7108;42.684;23.350;2024-02-26T06:50:27;94922.88;;;10.11;100.00
14067;BME280;7108;42.684;23.350;2024-02-26T06:52:53;94920.19;;;10.11;100.00
14067;BME280;7108;42.684;23.350;2024-02-26T06:55:18;94919.50;;;10.17;100.00
14067;BME280;7108;42.684;23.350;2024-02-26T06:57:44;94923.06;;;10.21;100.00
14067;BME280;7108;42.684;23.350;2024-02-26T07:00:09;94916.88;;;10.21;100.00
14067;BME280;7108;42.684;23.350;2024-02-26T07:02:39;94930.81;;;10.26;100.00
14067;BME280;7108;42.684;23.350;2024-02-26T07:05:06;94929.09;;;10.15;100.00
14067;BME280;7108;42.684;23.350;2024-02-26T07:07:31;94927.44;;;10.07;100.00
14067;BME280;7108;42.684;23.350;2024-02-26T07:09:56;94932.03;;;10.06;100.00
14067;BME280;7108;42.684;23.350;2024-02-26T07:12:25;94941.41;;;10.16;100.00
14067;BME280;7108;42.684;23.350;2024-02-26T07:14:51;94942.25;;;10.20;100.00
14067;BME280;7108;42.684;23.350;2024-02-26T07:17:17;94947.88;;;10.11;100.00
14067;BME280;7108;42.684;23.350;2024-02-26T07:19:42;94947.94;;;10.15;100.00
14067;BME280;7108;42.684;23.350;2024-02-26T07:22:08;94949.50;;;10.16;100.00
14067;BME280;7108;42.684;23.350;2024-02-26T07:24:34;94947.47;;;10.09;100.00
14067;BME280;7108;42.684;23.350;2024-02-26T07:26:59;94948.66;;;10.12;100.00
14067;BME280;7108;42.684;23.350;2024-02-26T07:29:24;94949.72;;;10.07;100.00
14067;BME280;7108;42.684;23.350;2024-02-26T07:31:50;94935.44;;;10.03;100.00
14067;BME280;7108;42.684;23.350;2024-02-26T07:34:15;94935.09;;;10.05;100.00
14067;BME280;7108;42.684;23.350;2024-02-26T07:36:41;94938.91;;;10.04;100.00
14067;BME280;7108;42.684;23.350;2024-02-26T07:39:06;94961.28;;;10.08;100.00
14067;BME280;7108;42.684;23.350;2024-02-26T07:41:31;94952.47;;;10.11;100.00
14067;BME280;7108;42.684;23.350;2024-02-26T07:43:57;94960.69;;;10.18;100.00
14067;BME280;7108;42.684;23.350;2024-02-26T07:46:22;94954.81;;;10.12;100.00
14067;BME280;7108;42.684;23.350;2024-02-26T07:48:48;94947.53;;;10.13;100.00
14067;BME280;7108;42.684;23.350;2024-02-26T07:51:16;94953.38;;;10.18;100.00
14067;BME280;7108;42.684;23.350;2024-02-26T07:53:42;94955.34;;;10.21;100.00
14067;BME280;7108;42.684;23.350;2024-02-26T07:56:08;94951.09;;;10.20;100.00
14067;BME280;7108;42.684;23.350;2024-02-26T07:58:34;94954.50;;;10.17;100.00
14067;BME280;7108;42.684;23.350;2024-02-26T08:01:00;94956.59;;;10.27;100.00
14067;BME280;7108;42.684;23.350;2024-02-26T08:03:25;94927.66;;;10.21;100.00
14067;BME280;7108;42.684;23.350;2024-02-26T08:05:51;94942.88;;;10.36;100.00
14067;BME280;7108;42.684;23.350;2024-02-26T08:08:16;94924.50;;;10.41;100.00
14067;BME280;7108;42.684;23.350;2024-02-26T08:10:42;94918.00;;;10.45;100.00
14067;BME280;7108;42.684;23.350;2024-02-26T08:13:07;94942.72;;;10.51;100.00
14067;BME280;7108;42.684;23.350;2024-02-26T08:15:33;94938.59;;;10.60;100.00
14067;BME280;7108;42.684;23.350;2024-02-26T08:18:03;94925.69;;;10.44;100.00
14067;BME280;7108;42.684;23.350;2024-02-26T08:20:29;94941.94;;;10.50;100.00
14067;BME280;7108;42.684;23.350;2024-02-26T08:22:55;94928.94;;;10.56;100.00
14067;BME280;7108;42.684;23.350;2024-02-26T08:25:20;94929.72;;;10.56;100.00
14067;BME280;7108;42.684;23.350;2024-02-26T08:27:45;94926.66;;;10.58;100.00
14067;BME280;7108;42.684;23.350;2024-02-26T08:30:13;94939.59;;;10.75;100.00
14067;BME280;7108;42.684;23.350;2024-02-26T08:32:41;94926.59;;;10.80;100.00
14067;BME280;7108;42.684;23.350;2024-02-26T08:35:07;94924.38;;;10.89;100.00
14067;BME280;7108;42.684;23.350;2024-02-26T08:37:33;94920.59;;;10.94;100.00
14067;BME280;7108;42.684;23.350;2024-02-26T08:39:58;94928.81;;;11.04;100.00
14067;BME280;7108;42.684;23.350;2024-02-26T08:42:24;94929.25;;;11.10;100.00
14067;BME280;7108;42.684;23.350;2024-02-26T08:44:49;94920.38;;;11.09;100.00
14067;BME280;7108;42.684;23.350;2024-02-26T08:47:14;94916.59;;;11.13;100.00
14067;BME280;7108;42.684;23.350;2024-02-26T08:49:44;94923.78;;;11.35;100.00
14067;BME280;7108;42.684;23.350;2024-02-26T08:52:10;94899.84;;;11.34;100.00
14067;BME280;7108;42.684;23.350;2024-02-26T08:54:35;94918.53;;;11.49;100.00
14067;BME280;7108;42.684;23.350;2024-02-26T08:57:00;94918.94;;;11.51;100.00
14067;BME280;7108;42.684;23.350;2024-02-26T08:59:26;94924.91;;;11.67;100.00
14067;BME280;7108;42.684;23.350;2024-02-26T09:01:51;94921.47;;;11.70;100.00
14067;BME280;7108;42.684;23.350;2024-02-26T09:04:17;94908.81;;;11.77;100.00
14067;BME280;7108;42.684;23.350;2024-02-26T09:06:42;94909.22;;;11.83;100.00
14067;BME280;7108;42.684;23.350;2024-02-26T09:09:07;94875.63;;;11.77;100.00
14067;BME280;7108;42.684;23.350;2024-02-26T09:11:33;94900.13;;;12.01;100.00
14067;BME280;7108;42.684;23.350;2024-02-26T09:13:58;94901.75;;;12.09;100.00
14067;BME280;7108;42.684;23.350;2024-02-26T09:16:24;94899.53;;;12.22;100.00
14067;BME280;7108;42.684;23.350;2024-02-26T09:18:49;94887.59;;;12.23;100.00
14067;BME280;7108;42.684;23.350;2024-02-26T09:21:15;94889.59;;;12.40;100.00
14067;BME280;7108;42.684;23.350;2024-02-26T09:23:41;94881.88;;;12.38;100.00
14067;BME280;7108;42.684;23.350;2024-02-26T09:26:06;94866.41;;;12.32;100.00
14067;BME280;7108;42.684;23.350;2024-02-26T09:28:32;94886.19;;;12.46;100.00
14067;BME280;7108;42.684;23.350;2024-02-26T09:31:03;94864.94;;;12.44;100.00
14067;BME280;7108;42.684;23.350;2024-02-26T09:33:29;94871.19;;;12.59;100.00
14067;BME280;7108;42.684;23.350;2024-02-26T09:35:54;94863.13;;;12.66;100.00
14067;BME280;7108;42.684;23.350;2024-02-26T09:38:19;94868.63;;;12.83;100.00
14067;BME280;7108;42.684;23.350;2024-02-26T09:40:45;94872.56;;;12.93;100.00
14067;BME280;7108;42.684;23.350;2024-02-26T09:43:14;94869.88;;;13.03;100.00
14067;BME280;7108;42.684;23.350;2024-02-26T09:45:40;94854.81;;;12.95;100.00
14067;BME280;7108;42.684;23.350;2024-02-26T09:48:08;94867.59;;;13.09;100.00
14067;BME280;7108;42.684;23.350;2024-02-26T09:50:34;94857.56;;;13.12;100.00
14067;BME280;7108;42.684;23.350;2024-02-26T09:52:59;94863.38;;;13.21;100.00
14067;BME280;7108;42.684;23.350;2024-02-26T09:55:27;94866.09;;;13.21;100.00
14067;BME280;7108;42.684;23.350;2024-02-26T09:57:53;94862.25;;;13.26;100.00
14067;BME280;7108;42.684;23.350;2024-02-26T10:00:21;94861.88;;;13.34;100.00
14067;BME280;7108;42.684;23.350;2024-02-26T10:02:47;94849.88;;;13.39;100.00
14067;BME280;7108;42.684;23.350;2024-02-26T10:05:16;94851.06;;;13.45;100.00
14067;BME280;7108;42.684;23.350;2024-02-26T10:07:44;94854.94;;;13.51;100.00
14067;BME280;7108;42.684;23.350;2024-02-26T10:10:09;94836.38;;;13.39;100.00
14067;BME280;7108;42.684;23.350;2024-02-26T10:12:35;94843.34;;;13.43;100.00
14067;BME280;7108;42.684;23.350;2024-02-26T10:15:00;94852.25;;;13.58;100.00
14067;BME280;7108;42.684;23.350;2024-02-26T10:17:26;94846.47;;;13.63;100.00
14067;BME280;7108;42.684;23.350;2024-02-26T10:19:52;94829.81;;;13.61;100.00
14067;BME280;7108;42.684;23.350;2024-02-26T10:22:22;94838.72;;;13.68;100.00
14067;BME280;7108;42.684;23.350;2024-02-26T10:24:47;94816.66;;;13.52;100.00
14067;BME280;7108;42.684;23.350;2024-02-26T10:27:13;94816.69;;;13.59;100.00
14067;BME280;7108;42.684;23.350;2024-02-26T10:29:38;94817.06;;;13.65;100.00
14067;BME280;7108;42.684;23.350;2024-02-26T10:32:04;94818.63;;;13.69;100.00
14067;BME280;7108;42.684;23.350;2024-02-26T10:34:29;94814.75;;;13.67;100.00
14067;BME280;7108;42.684;23.350;2024-02-26T10:36:56;94813.19;;;13.83;100.00
14067;BME280;7108;42.684;23.350;2024-02-26T10:39:21;94807.41;;;13.74;100.00
14067;BME280;7108;42.684;23.350;2024-02-26T10:41:46;94817.84;;;13.82;100.00
14067;BME280;7108;42.684;23.350;2024-02-26T10:44:12;94805.06;;;13.86;100.00
14067;BME280;7108;42.684;23.350;2024-02-26T10:46:41;94803.53;;;13.92;100.00
14067;BME280;7108;42.684;23.350;2024-02-26T10:49:13;94794.63;;;13.81;100.00
14067;BME280;7108;42.684;23.350;2024-02-26T10:51:42;94812.81;;;13.95;100.00
14067;BME280;7108;42.684;23.350;2024-02-26T10:54:10;94803.53;;;13.99;100.00
14067;BME280;7108;42.684;23.350;2024-02-26T10:56:38;94806.59;;;14.05;100.00
14067;BME280;7108;42.684;23.350;2024-02-26T10:59:07;94796.19;;;14.10;100.00
14067;BME280;7108;42.684;23.350;2024-02-26T11:01:34;94794.22;;;14.04;100.00
14067;BME280;7108;42.684;23.350;2024-02-26T11:04:03;94803.94;;;14.12;100.00
14067;BME280;7108;42.684;23.350;2024-02-26T11:06:28;94791.50;;;14.04;100.00
14067;BME280;7108;42.684;23.350;2024-02-26T11:08:54;94779.53;;;14.01;100.00
14067;BME280;7108;42.684;23.350;2024-02-26T11:11:23;94788.44;;;14.02;100.00
14067;BME280;7108;42.684;23.350;2024-02-26T11:13:49;94793.84;;;14.09;100.00
14067;BME280;7108;42.684;23.350;2024-02-26T11:16:21;94787.69;;;14.12;100.00
14067;BME280;7108;42.684;23.350;2024-02-26T11:18:49;94773.31;;;14.08;100.00
14067;BME280;7108;42.684;23.350;2024-02-26T11:21:17;94787.28;;;14.20;100.00
14067;BME280;7108;42.684;23.350;2024-02-26T11:23:53;94789.59;;;14.22;100.00
14067;BME280;7108;42.684;23.350;2024-02-26T11:26:19;94776.78;;;14.26;100.00
14067;BME280;7108;42.684;23.350;2024-02-26T11:28:47;94796.91;;;14.32;100.00
14067;BME280;7108;42.684;23.350;2024-02-26T11:31:13;94788.03;;;14.28;100.00
14067;BME280;7108;42.684;23.350;2024-02-26T11:33:39;94774.09;;;14.29;100.00
14067;BME280;7108;42.684;23.350;2024-02-26T11:36:14;94767.91;;;14.25;100.00
14067;BME280;7108;42.684;23.350;2024-02-26T11:38:40;94768.28;;;14.27;100.00
14067;BME280;7108;42.684;23.350;2024-02-26T11:41:06;94774.09;;;14.33;100.00
14067;BME280;7108;42.684;23.350;2024-02-26T11:44:03;94772.88;;;14.44;100.00
14067;BME280;7108;42.684;23.350;2024-02-26T11:46:41;94769.44;;;14.30;100.00
14067;BME280;7108;42.684;23.350;2024-02-26T11:49:29;94773.69;;;14.34;100.00
14067;BME280;7108;42.684;23.350;2024-02-26T11:51:56;94761.31;;;14.26;100.00
14067;BME280;7108;42.684;23.350;2024-02-26T11:54:44;94769.81;;;14.35;100.00
14067;BME280;7108;42.684;23.350;2024-02-26T11:57:30;94761.28;;;14.40;100.00
14067;BME280;7108;42.684;23.350;2024-02-26T12:02:45;94766.66;;;14.47;100.00
14067;BME280;7108;42.684;23.350;2024-02-26T12:05:13;94753.50;;;14.45;100.00
14067;BME280;7108;42.684;23.350;2024-02-26T12:07:46;94762.78;;;14.48;100.00
14067;BME280;7108;42.684;23.350;2024-02-26T12:10:24;94753.50;;;14.42;100.00
14067;BME280;7108;42.684;23.350;2024-02-26T12:13:16;94754.72;;;14.38;100.00
14067;BME280;7108;42.684;23.350;2024-02-26T12:15:54;94764.72;;;14.47;100.00
14067;BME280;7108;42.684;23.350;2024-02-26T12:18:20;94745.41;;;14.35;100.00
14067;BME280;7108;42.684;23.350;2024-02-26T12:20:47;94766.66;;;14.50;100.00
14067;BME280;7108;42.684;23.350;2024-02-26T12:23:22;94764.31;;;14.56;100.00
14067;BME280;7108;42.684;23.350;2024-02-26T12:25:48;94758.09;;;14.55;100.00
14067;BME280;7108;42.684;23.350;2024-02-26T12:28:14;94762.31;;;14.70;100.00
14067;BME280;7108;42.684;23.350;2024-02-26T12:30:40;94751.84;;;14.76;100.00
14067;BME280;7108;42.684;23.350;2024-02-26T12:33:08;94763.75;;;14.92;100.00
14067;BME280;7108;42.684;23.350;2024-02-26T12:35:35;94755.19;;;14.97;100.00
14067;BME280;7108;42.684;23.350;2024-02-26T12:38:00;94758.31;;;14.99;100.00
14067;BME280;7108;42.684;23.350;2024-02-26T12:40:26;94755.94;;;15.01;100.00
14067;BME280;7108;42.684;23.350;2024-02-26T12:42:53;94759.41;;;15.08;100.00
14067;BME280;7108;42.684;23.350;2024-02-26T12:45:20;94763.22;;;15.14;100.00
14067;BME280;7108;42.684;23.350;2024-02-26T12:47:46;94761.28;;;15.18;100.00
14067;BME280;7108;42.684;23.350;2024-02-26T12:50:11;94758.94;;;15.20;100.00
14067;BME280;7108;42.684;23.350;2024-02-26T12:52:43;94750.78;;;15.31;100.00